createdAt,value
2022-12-13T00:01:46.221Z,101034.91
2022-12-13T00:04:13.940Z,101028.97
2022-12-13T00:06:40.530Z,101031.50
2022-12-13T00:09:07.616Z,101017.91
2022-12-13T00:11:34.564Z,101017.06
2022-12-13T00:14:01.138Z,101015.38
2022-12-13T00:16:28.087Z,101017.06
2022-12-13T00:18:57.812Z,101017.06
2022-12-13T00:21:30.856Z,101011.91
2022-12-13T00:23:58.401Z,101013.59
2022-12-13T00:26:29.842Z,101009.31
2022-12-13T00:28:56.844Z,101010.16
2022-12-13T00:34:12.584Z,101015.25
2022-12-13T00:36:39.150Z,101013.53
2022-12-13T00:39:05.732Z,101006.75
2022-12-13T00:41:35.100Z,101009.28
2022-12-13T00:44:02.786Z,101014.38
2022-12-13T00:46:30.066Z,101010.97
2022-12-13T00:48:58.687Z,101013.53
2022-12-13T00:51:26.705Z,101004.19
2022-12-13T00:53:53.343Z,101009.28
2022-12-13T00:56:23.540Z,101004.97
2022-12-13T00:58:52.430Z,101002.44
2022-12-13T01:01:21.325Z,101002.44
2022-12-13T01:03:48.021Z,100996.47
2022-12-13T01:06:18.843Z,100999.03
2022-12-13T01:08:46.458Z,101000.72
2022-12-13T01:11:16.358Z,101001.56
2022-12-13T01:13:42.930Z,101004.88
2022-12-13T01:16:11.272Z,101003.19
2022-12-13T01:18:40.632Z,101009.13
2022-12-13T01:21:09.613Z,101006.50
2022-12-13T01:23:36.550Z,101011.59
2022-12-13T01:26:05.064Z,101010.72
2022-12-13T01:28:32.367Z,101007.31
2022-12-13T01:31:03.484Z,101021.72
2022-12-13T01:33:30.762Z,101018.28
2022-12-13T01:36:01.823Z,101021.69
2022-12-13T01:38:29.122Z,101030.16
2022-12-13T01:40:59.218Z,101025.00
2022-12-13T01:43:41.870Z,101034.38
2022-12-13T01:46:10.435Z,101028.41
2022-12-13T01:48:42.193Z,101026.69
2022-12-13T01:51:12.453Z,101025.00
2022-12-13T01:53:42.629Z,101021.59
2022-12-13T01:56:23.768Z,101026.69
2022-12-13T01:58:52.462Z,101026.66
2022-12-13T02:01:19.268Z,101024.97
2022-12-13T02:03:46.174Z,101017.28
2022-12-13T02:06:35.765Z,101016.44
2022-12-13T02:09:05.434Z,101020.66
2022-12-13T02:11:33.569Z,101020.63
2022-12-13T02:14:00.105Z,101023.13
2022-12-13T02:16:53.152Z,101014.63
2022-12-13T02:20:21.711Z,101021.41
2022-12-13T02:23:16.661Z,101020.56
2022-12-13T02:25:51.688Z,101023.13
2022-12-13T02:28:32.329Z,101024.81
2022-12-13T02:31:12.709Z,101029.88
2022-12-13T02:33:40.218Z,101026.47
2022-12-13T02:36:19.581Z,101022.22
2022-12-13T02:38:57.010Z,101018.00
2022-12-13T02:41:39.255Z,101007.81
2022-12-13T02:44:26.066Z,101015.44
2022-12-13T02:47:00.130Z,101012.00
2022-12-13T02:49:32.657Z,101005.25
2022-12-13T02:52:01.809Z,101007.75
2022-12-13T02:54:28.385Z,101009.44
2022-12-13T02:56:56.892Z,100999.22
2022-12-13T02:59:32.162Z,101002.63
2022-12-13T03:02:30.770Z,100994.06
2022-12-13T03:05:54.550Z,100996.53
2022-12-13T03:08:30.483Z,100999.91
2022-12-13T03:11:05.641Z,100997.34
2022-12-13T03:13:44.754Z,100991.38
2022-12-13T03:16:36.690Z,100990.50
2022-12-13T03:19:06.600Z,100985.41
2022-12-13T03:21:48.005Z,100994.72
2022-12-13T03:24:18.785Z,100994.75
2022-12-13T03:26:45.646Z,100996.44
2022-12-13T03:29:12.192Z,101003.22
2022-12-13T03:31:38.890Z,100996.44
2022-12-13T03:34:05.652Z,101001.50
2022-12-13T03:36:34.774Z,100997.19
2022-12-13T03:39:01.505Z,100991.25
2022-12-13T03:41:32.882Z,100989.53
2022-12-13T03:44:09.049Z,100987.00
2022-12-13T03:46:35.822Z,100981.91
2022-12-13T03:49:04.717Z,100981.88
2022-12-13T03:51:31.244Z,100982.66
2022-12-13T03:53:57.852Z,100985.19
2022-12-13T03:56:24.846Z,100985.19
2022-12-13T03:58:51.397Z,100992.00
2022-12-13T04:01:18.346Z,100988.59
2022-12-13T04:03:47.047Z,100985.22
2022-12-13T04:06:21.957Z,100983.50
2022-12-13T04:08:51.038Z,100979.25
2022-12-13T04:11:36.583Z,100973.25
2022-12-13T04:14:12.197Z,100979.19
2022-12-13T04:16:48.744Z,100982.56
2022-12-13T04:19:15.341Z,100985.94
2022-12-13T04:21:50.045Z,100985.06
2022-12-13T04:24:16.618Z,100979.09
2022-12-13T04:26:43.206Z,100978.22
2022-12-13T04:29:09.785Z,100979.91
2022-12-13T04:31:36.408Z,100973.09
2022-12-13T04:34:02.972Z,100966.34
2022-12-13T04:36:31.703Z,100967.16
2022-12-13T04:39:00.688Z,100961.19
2022-12-13T04:41:34.005Z,100960.31
2022-12-13T04:44:04.551Z,100962.00
2022-12-13T04:46:31.149Z,100953.53
2022-12-13T04:48:57.875Z,100951.84
2022-12-13T04:51:24.553Z,100954.38
2022-12-13T04:53:51.374Z,100956.91
2022-12-13T04:56:19.391Z,100956.06
2022-12-13T04:58:46.241Z,100959.47
2022-12-13T05:01:12.951Z,100954.38
2022-12-13T05:03:39.869Z,100964.56
2022-12-13T05:06:26.634Z,100956.91
2022-12-13T05:08:54.540Z,100956.06
2022-12-13T05:11:23.039Z,100954.31
2022-12-13T05:13:50.148Z,100950.97
2022-12-13T05:16:16.868Z,100950.06
2022-12-13T05:18:43.908Z,100950.06
2022-12-13T05:21:12.234Z,100949.19
2022-12-13T05:23:40.242Z,100957.66
2022-12-13T05:26:07.080Z,100954.25
2022-12-13T05:28:33.879Z,100950.88
2022-12-13T05:31:23.261Z,100959.34
2022-12-13T05:33:54.205Z,100947.44
2022-12-13T05:36:28.233Z,100945.69
2022-12-13T05:38:54.842Z,100942.28
2022-12-13T05:41:26.675Z,100936.34
2022-12-13T05:43:53.326Z,100938.06
2022-12-13T05:46:20.002Z,100933.00
2022-12-13T05:48:46.562Z,100935.56
2022-12-13T05:51:15.720Z,100938.94
2022-12-13T05:53:42.888Z,100934.69
2022-12-13T05:56:11.679Z,100933.81
2022-12-13T05:58:39.849Z,100939.78
2022-12-13T06:01:09.176Z,100944.84
2022-12-13T06:03:36.357Z,100947.41
2022-12-13T06:06:04.186Z,100952.47
2022-12-13T06:08:33.423Z,100947.41
2022-12-13T06:11:10.117Z,100945.72
2022-12-13T06:13:42.058Z,100953.31
2022-12-13T06:16:23.202Z,100951.59
2022-12-13T06:18:57.507Z,100953.28
2022-12-13T06:21:33.361Z,100951.53
2022-12-13T06:24:13.887Z,100950.66
2022-12-13T06:26:40.365Z,100949.81
2022-12-13T06:29:06.805Z,100954.03
2022-12-13T06:31:33.291Z,100951.44
2022-12-13T06:34:14.271Z,100954.88
2022-12-13T06:36:42.508Z,100941.44
2022-12-13T06:39:09.198Z,100945.72
2022-12-13T06:41:36.932Z,100951.72
2022-12-13T06:44:03.479Z,100942.44
2022-12-13T06:46:29.997Z,100948.38
2022-12-13T06:48:57.089Z,100951.78
2022-12-13T06:51:32.539Z,100954.34
2022-12-13T06:54:01.428Z,100952.66
2022-12-13T06:56:28.648Z,100959.47
2022-12-13T06:59:01.457Z,100951.84
2022-12-13T07:01:36.938Z,100947.59
2022-12-13T07:04:05.517Z,100955.22
2022-12-13T07:06:52.073Z,100948.38
2022-12-13T07:09:18.520Z,100950.03
2022-12-13T07:11:51.722Z,100951.63
2022-12-13T07:14:18.954Z,100951.53
2022-12-13T07:16:45.398Z,100947.25
2022-12-13T07:19:22.454Z,100955.66
2022-12-13T07:21:49.925Z,100953.06
2022-12-13T07:24:16.359Z,100955.56
2022-12-13T07:26:42.859Z,100953.00
2022-12-13T07:29:09.451Z,100953.84
2022-12-13T07:31:36.744Z,100956.38
2022-12-13T07:34:03.203Z,100959.75
2022-12-13T07:36:29.704Z,100962.31
2022-12-13T07:38:57.799Z,100968.19
2022-12-13T07:41:26.274Z,100966.44
2022-12-13T07:43:55.092Z,100961.41
2022-12-13T07:46:31.783Z,100968.16
2022-12-13T07:49:01.397Z,100972.44
2022-12-13T07:51:28.602Z,100972.44
2022-12-13T07:53:55.127Z,100975.84
2022-12-13T07:56:21.727Z,100976.66
2022-12-13T07:58:48.259Z,100974.16
2022-12-13T08:01:14.801Z,100980.97
2022-12-13T08:03:41.340Z,100983.47
2022-12-13T08:06:10.716Z,100980.97
2022-12-13T08:08:37.755Z,100982.66
2022-12-13T08:11:13.374Z,100979.31
2022-12-13T08:13:41.041Z,100971.66
2022-12-13T08:16:27.492Z,100971.66
2022-12-13T08:19:03.060Z,100975.09
2022-12-13T08:24:21.907Z,100977.75
2022-12-13T08:26:48.371Z,100981.13
2022-12-13T08:29:22.250Z,100977.78
2022-12-13T08:31:51.094Z,100985.41
2022-12-13T08:34:17.585Z,100977.78
2022-12-13T08:36:44.221Z,100986.28
2022-12-13T08:39:10.727Z,100993.09
2022-12-13T08:41:39.244Z,100989.00
2022-12-13T08:44:06.376Z,100983.97
2022-12-13T08:46:33.083Z,100984.91
2022-12-13T08:48:59.745Z,100978.28
2022-12-13T08:51:32.262Z,100978.34
2022-12-13T08:54:11.003Z,100975.91
2022-12-13T08:56:38.200Z,100981.91
2022-12-13T08:59:05.186Z,100986.22
2022-12-13T09:01:31.843Z,100983.72
2022-12-13T09:03:58.364Z,100986.34
2022-12-13T09:06:25.085Z,100991.50
2022-12-13T09:08:54.621Z,100987.31
2022-12-13T09:11:34.566Z,100980.59
2022-12-13T09:14:03.203Z,100995.03
2022-12-13T09:16:36.202Z,100995.94
2022-12-13T09:19:24.652Z,100995.94
2022-12-13T09:21:51.937Z,100984.09
2022-12-13T09:24:24.039Z,100991.81
2022-12-13T09:26:57.337Z,100989.34
2022-12-13T09:29:24.173Z,100987.66
2022-12-13T09:31:53.207Z,100989.38
2022-12-13T09:34:20.387Z,100995.31
2022-12-13T09:36:47.010Z,100996.97
2022-12-13T09:39:13.503Z,100997.91
2022-12-13T09:41:53.368Z,100991.97
2022-12-13T09:44:42.521Z,100997.09
2022-12-13T09:47:22.937Z,100992.84
2022-12-13T09:49:52.565Z,100991.97
2022-12-13T09:52:23.676Z,100990.28
2022-12-13T09:54:53.581Z,100986.88
2022-12-13T09:57:32.948Z,100986.03
2022-12-13T10:00:02.595Z,100984.38
2022-12-13T10:02:32.148Z,100983.56
2022-12-13T10:05:22.540Z,100984.50
2022-12-13T10:07:50.454Z,100980.31
2022-12-13T10:10:17.307Z,100977.75
2022-12-13T10:12:47.757Z,100971.00
2022-12-13T10:15:21.742Z,100976.09
2022-12-13T10:17:55.131Z,100963.31
2022-12-13T10:20:24.127Z,100960.75
2022-12-13T10:23:14.983Z,100954.81
2022-12-13T10:26:02.911Z,100945.47
2022-12-13T10:28:33.292Z,100949.72
2022-12-13T10:31:01.508Z,100953.13
2022-12-13T10:33:31.791Z,100947.22
2022-12-13T10:36:16.096Z,100944.69
2022-12-13T10:38:45.902Z,100937.13
2022-12-13T10:41:31.211Z,100941.38
2022-12-13T10:44:18.605Z,100936.34
2022-12-13T10:46:53.340Z,100927.00
2022-12-13T10:49:25.866Z,100920.22
2022-12-13T10:51:54.241Z,100917.78
2022-12-13T10:54:27.702Z,100910.16
2022-12-13T10:57:00.163Z,100905.97
2022-12-13T10:59:35.061Z,100905.06
2022-12-13T11:02:36.865Z,100894.00
2022-12-13T11:05:25.872Z,100895.78
2022-12-13T11:08:00.670Z,100891.66
2022-12-13T11:10:29.507Z,100893.41
2022-12-13T11:13:05.012Z,100885.03
2022-12-13T11:15:34.627Z,100887.63
2022-12-13T11:18:21.631Z,100884.19
2022-12-13T11:20:58.991Z,100888.50
2022-12-13T11:23:45.010Z,100874.03
2022-12-13T11:26:24.212Z,100876.63
2022-12-13T11:29:19.130Z,100879.16
2022-12-13T11:32:27.300Z,100875.78
2022-12-13T11:35:14.590Z,100870.59
2022-12-13T11:37:52.911Z,100868.09
2022-12-13T11:40:27.232Z,100864.66
2022-12-13T11:43:09.225Z,100853.59
2022-12-13T11:45:54.729Z,100855.34
2022-12-13T11:48:37.613Z,100857.09
2022-12-13T11:51:08.006Z,100854.50
2022-12-13T11:53:45.160Z,100852.03
2022-12-13T11:56:30.981Z,100848.66
2022-12-13T11:59:16.115Z,100842.72
2022-12-13T12:02:05.009Z,100837.69
2022-12-13T12:04:39.909Z,100847.81
2022-12-13T12:07:32.363Z,100841.03
2022-12-13T12:10:15.007Z,100838.50
2022-12-13T12:12:51.783Z,100841.94
2022-12-13T12:15:27.386Z,100847.94
2022-12-13T12:17:55.551Z,100840.25
2022-12-13T12:20:32.892Z,100840.31
2022-12-13T12:23:21.673Z,100829.25
2022-12-13T12:26:12.142Z,100821.59
2022-12-13T12:28:47.602Z,100824.16
2022-12-13T12:31:17.136Z,100820.72
2022-12-13T12:33:58.775Z,100831.00
2022-12-13T12:36:33.721Z,100820.75
2022-12-13T12:39:03.269Z,100827.56
2022-12-13T12:41:45.613Z,100823.28
2022-12-13T12:44:21.435Z,100822.47
2022-12-13T12:47:48.936Z,100818.19
2022-12-13T12:50:42.945Z,100817.34
2022-12-13T12:53:37.285Z,100818.19
2022-12-13T12:56:35.217Z,100821.63
2022-12-13T12:59:21.935Z,100824.16
2022-12-13T13:02:00.914Z,100819.06
2022-12-13T13:04:35.880Z,100817.38
2022-12-13T13:07:22.445Z,100804.59
2022-12-13T13:09:51.521Z,100806.31
2022-12-13T13:12:28.893Z,100798.66
2022-12-13T13:14:57.712Z,100798.66
2022-12-13T13:17:24.225Z,100801.22
2022-12-13T13:20:11.751Z,100796.09
2022-12-13T13:22:43.492Z,100797.81
2022-12-13T13:25:23.615Z,100804.59
2022-12-13T13:27:53.425Z,100793.56
2022-12-13T13:30:22.060Z,100796.97
2022-12-13T13:32:53.335Z,100785.03
2022-12-13T13:35:32.298Z,100788.47
2022-12-13T13:37:59.718Z,100796.97
2022-12-13T13:40:30.820Z,100795.28
2022-12-13T13:43:08.748Z,100799.53
2022-12-13T13:45:57.301Z,100794.41
2022-12-13T13:48:46.257Z,100791.88
2022-12-13T13:51:41.396Z,100796.13
2022-12-13T13:54:44.871Z,100791.88
2022-12-13T13:58:09.630Z,100781.63
2022-12-13T14:01:14.509Z,100789.28
2022-12-13T14:04:18.259Z,100778.22
2022-12-13T14:07:39.854Z,100775.69
2022-12-13T14:10:25.262Z,100773.13
2022-12-13T14:13:25.618Z,100766.31
2022-12-13T14:16:27.129Z,100778.22
2022-12-13T14:19:40.296Z,100762.06
2022-12-13T14:22:24.725Z,100768.03
2022-12-13T14:25:10.335Z,100763.75
2022-12-13T14:27:48.935Z,100763.75
2022-12-13T14:30:28.526Z,100768.84
2022-12-13T14:32:56.934Z,100763.72
2022-12-13T14:35:27.023Z,100758.63
2022-12-13T14:38:02.145Z,100753.53
2022-12-13T14:40:33.304Z,100754.34
2022-12-13T14:43:00.751Z,100762.00
2022-12-13T14:45:36.638Z,100772.22
2022-12-13T14:48:14.225Z,100770.53
2022-12-13T14:50:43.965Z,100773.91
2022-12-13T14:53:37.282Z,100767.13
2022-12-13T14:56:28.069Z,100771.38
2022-12-13T14:59:01.520Z,100759.47
2022-12-13T15:01:36.333Z,100754.34
2022-12-13T15:04:29.952Z,100750.09
2022-12-13T15:07:15.056Z,100746.69
2022-12-13T15:09:44.193Z,100741.59
2022-12-13T15:12:23.817Z,100739.00
2022-12-13T15:15:02.485Z,100738.16
2022-12-13T15:17:35.361Z,100735.63
2022-12-13T15:20:20.870Z,100737.31
2022-12-13T15:22:48.336Z,100735.59
2022-12-13T15:25:15.604Z,100728.78
2022-12-13T15:27:42.338Z,100731.34
2022-12-13T15:30:15.319Z,100727.94
2022-12-13T15:33:08.115Z,100724.53
2022-12-13T15:35:39.039Z,100711.75
2022-12-13T15:38:10.270Z,100711.75
2022-12-13T15:40:37.017Z,100712.63
2022-12-13T15:43:03.591Z,100714.31
2022-12-13T15:45:36.702Z,100724.53
2022-12-13T15:48:04.630Z,100720.25
2022-12-13T15:50:43.823Z,100714.31
2022-12-13T15:53:26.245Z,100711.78
2022-12-13T15:55:53.012Z,100699.00
2022-12-13T15:58:26.146Z,100704.13
2022-12-13T16:00:53.294Z,100700.72
2022-12-13T16:03:24.533Z,100693.03
2022-12-13T16:05:54.867Z,100688.78
2022-12-13T16:08:30.357Z,100684.53
2022-12-13T16:10:58.342Z,100684.53
2022-12-13T16:13:36.957Z,100673.50
2022-12-13T16:16:10.162Z,100671.78
2022-12-13T16:18:51.671Z,100673.50
2022-12-13T16:21:18.185Z,100670.09
2022-12-13T16:23:48.535Z,100667.56
2022-12-13T16:26:22.057Z,100666.69
2022-12-13T16:28:48.564Z,100662.44
2022-12-13T16:31:22.206Z,100669.22
2022-12-13T16:33:49.108Z,100665.81
2022-12-13T16:36:16.386Z,100669.22
2022-12-13T16:38:42.904Z,100669.22
2022-12-13T16:41:09.973Z,100671.78
2022-12-13T16:43:50.828Z,100664.13
2022-12-13T16:47:12.235Z,100671.78
2022-12-13T16:49:17.910Z,100664.13
2022-12-13T16:51:48.274Z,100662.44
2022-12-13T16:54:15.496Z,100664.97
2022-12-13T16:56:42.129Z,100663.28
2022-12-13T16:59:13.214Z,100667.53
2022-12-13T17:01:40.014Z,100659.03
2022-12-13T17:04:11.873Z,100659.00
2022-12-13T17:06:42.493Z,100666.66
2022-12-13T17:09:09.660Z,100665.84
2022-12-13T17:11:36.786Z,100664.94
2022-12-13T17:14:04.680Z,100655.59
2022-12-13T17:16:31.721Z,100659.00
2022-12-13T17:18:58.332Z,100657.31
2022-12-13T17:21:25.919Z,100658.16
2022-12-13T17:24:00.640Z,100651.38
2022-12-13T17:26:28.566Z,100649.66
2022-12-13T17:28:55.159Z,100648.81
2022-12-13T17:31:21.797Z,100659.88
2022-12-13T17:33:48.443Z,100654.78
2022-12-13T17:36:15.950Z,100656.44
2022-12-13T17:38:47.328Z,100660.69
2022-12-13T17:41:15.724Z,100660.69
2022-12-13T17:43:43.475Z,100653.03
2022-12-13T17:46:15.782Z,100648.78
2022-12-13T17:48:43.684Z,100652.22
2022-12-13T17:51:11.348Z,100659.00
2022-12-13T17:53:43.150Z,100656.44
2022-12-13T17:56:17.779Z,100652.19
2022-12-13T17:58:44.339Z,100660.69
2022-12-13T18:01:12.029Z,100659.84
2022-12-13T18:03:38.647Z,100660.69
2022-12-13T18:06:07.051Z,100672.59
2022-12-13T18:08:35.793Z,100670.88
2022-12-13T18:11:33.796Z,100663.25
2022-12-13T18:13:54.908Z,100659.00
2022-12-13T18:16:24.113Z,100644.56
2022-12-13T18:18:54.701Z,100649.66
2022-12-13T18:21:22.392Z,100647.09
2022-12-13T18:23:55.237Z,100652.19
2022-12-13T18:26:22.284Z,100653.06
2022-12-13T18:28:48.772Z,100649.66
2022-12-13T18:31:18.646Z,100648.81
2022-12-13T18:33:47.825Z,100655.59
2022-12-13T18:36:16.361Z,100648.81
2022-12-13T18:38:43.466Z,100644.56
2022-12-13T18:41:21.514Z,100642.84
2022-12-13T18:43:48.345Z,100636.06
2022-12-13T18:46:16.089Z,100640.31
2022-12-13T18:48:42.823Z,100639.44
2022-12-13T18:51:10.601Z,100638.56
2022-12-13T18:53:39.283Z,100636.03
2022-12-13T18:56:16.093Z,100638.56
2022-12-13T18:58:46.084Z,100635.19
2022-12-13T19:01:13.823Z,100631.78
2022-12-13T19:03:43.817Z,100629.22
2022-12-13T19:06:15.742Z,100631.78
2022-12-13T19:08:42.269Z,100630.94
2022-12-13T19:11:08.731Z,100630.91
2022-12-13T19:13:35.261Z,100627.50
2022-12-13T19:16:07.978Z,100622.41
2022-12-13T19:18:35.663Z,100623.28
2022-12-13T19:21:02.218Z,100615.63
2022-12-13T19:23:29.717Z,100613.91
2022-12-13T19:25:56.427Z,100617.31
2022-12-13T19:28:23.026Z,100617.31
2022-12-13T19:30:49.702Z,100611.38
2022-12-13T19:33:17.361Z,100612.22
2022-12-13T19:35:46.635Z,100616.47
2022-12-13T19:38:13.668Z,100606.28
2022-12-13T19:40:41.933Z,100608.81
2022-12-13T19:43:08.632Z,100605.44
2022-12-13T19:45:35.166Z,100605.44
2022-12-13T19:48:01.657Z,100598.63
2022-12-13T19:50:29.623Z,100599.47
2022-12-13T19:52:56.189Z,100596.09
2022-12-13T19:55:22.698Z,100590.97
2022-12-13T19:57:49.251Z,100585.00
2022-12-13T20:00:16.136Z,100580.78
2022-12-13T20:02:42.733Z,100579.91
2022-12-13T20:05:09.855Z,100571.44
2022-12-13T20:07:36.507Z,100573.97
2022-12-13T20:10:04.051Z,100566.31
2022-12-13T20:12:34.172Z,100572.28
2022-12-13T20:15:05.068Z,100568.88
2022-12-13T20:17:32.602Z,100571.41
2022-12-13T20:19:59.191Z,100565.47
2022-12-13T20:22:25.839Z,100561.22
2022-12-13T20:24:52.324Z,100556.13
2022-12-13T20:27:19.997Z,100562.09
2022-12-13T20:29:48.682Z,100551.91
2022-12-13T20:32:15.531Z,100554.44
2022-12-13T20:34:42.202Z,100549.34
2022-12-13T20:37:08.815Z,100551.03
2022-12-13T20:39:35.351Z,100545.09
2022-12-13T20:42:01.858Z,100536.59
2022-12-13T20:44:28.482Z,100528.09
2022-12-13T20:46:55.121Z,100517.03
2022-12-13T20:49:21.809Z,100513.66
2022-12-13T20:51:48.363Z,100507.69
2022-12-13T20:54:14.997Z,100500.91
2022-12-13T20:56:41.652Z,100494.09
2022-12-13T20:59:11.397Z,100479.66
2022-12-13T21:01:38.911Z,100480.53
2022-12-13T21:04:07.699Z,100476.28
2022-12-13T21:06:39.995Z,100481.38
2022-12-13T21:09:07.807Z,100487.31
2022-12-13T21:11:40.497Z,100486.47
2022-12-13T21:14:22.799Z,100480.53
2022-12-13T21:16:51.707Z,100481.38
2022-12-13T21:19:23.835Z,100477.97
2022-12-13T21:21:50.769Z,100475.44
2022-12-13T21:24:19.015Z,100475.44
2022-12-13T21:26:45.774Z,100474.59
2022-12-13T21:29:13.480Z,100472.88
2022-12-13T21:31:41.589Z,100470.34
2022-12-13T21:34:08.309Z,100455.91
2022-12-13T21:36:37.822Z,100461.84
2022-12-13T21:39:16.781Z,100453.34
2022-12-13T21:41:44.366Z,100443.16
2022-12-13T21:44:11.859Z,100437.22
2022-12-13T21:47:10.609Z,100435.53
2022-12-13T21:49:24.926Z,100427.84
2022-12-13T21:51:51.443Z,100425.31
2022-12-13T21:54:18.015Z,100421.06
2022-12-13T21:57:03.094Z,100418.53
2022-12-13T21:59:29.682Z,100415.97
2022-12-13T22:02:14.741Z,100421.06
2022-12-13T22:04:41.428Z,100422.75
2022-12-13T22:07:09.378Z,100422.75
2022-12-13T22:09:36.825Z,100419.38
2022-12-13T22:12:16.929Z,100427.00
2022-12-13T22:14:43.511Z,100415.97
2022-12-13T22:17:10.027Z,100404.06
2022-12-13T22:19:36.696Z,100407.50
2022-12-13T22:22:03.185Z,100413.41
2022-12-13T22:24:29.689Z,100410.00
2022-12-13T22:26:56.215Z,100408.31
2022-12-13T22:29:22.820Z,100398.97
2022-12-13T22:31:49.459Z,100399.84
2022-12-13T22:34:16.425Z,100399.81
2022-12-13T22:36:42.915Z,100393.03
2022-12-13T22:39:22.598Z,100380.28
2022-12-13T22:41:50.625Z,100387.09
2022-12-13T22:44:19.073Z,100390.47
2022-12-13T22:46:45.682Z,100387.94
2022-12-13T22:49:12.718Z,100387.09
2022-12-13T22:51:39.415Z,100380.31
2022-12-13T22:54:06.361Z,100380.31
2022-12-13T22:56:33.518Z,100382.00
2022-12-13T22:59:02.018Z,100382.84
2022-12-13T23:01:34.449Z,100384.53
2022-12-13T23:04:01.818Z,100387.94
2022-12-13T23:06:30.453Z,100382.00
2022-12-13T23:09:02.269Z,100384.53
2022-12-13T23:11:48.688Z,100380.28
2022-12-13T23:14:18.798Z,100376.03
2022-12-13T23:16:45.490Z,100381.97
2022-12-13T23:22:06.325Z,100382.00
2022-12-13T23:24:33.311Z,100381.16
2022-12-13T23:26:59.847Z,100376.91
2022-12-13T23:29:26.305Z,100376.06
2022-12-13T23:31:52.773Z,100373.50
2022-12-13T23:34:19.210Z,100364.16
2022-12-13T23:36:46.726Z,100359.91
2022-12-13T23:39:13.220Z,100358.22
2022-12-13T23:41:39.719Z,100357.38
2022-12-13T23:44:06.199Z,100354.84
2022-12-13T23:46:34.852Z,100353.13
2022-12-13T23:49:04.658Z,100347.19
2022-12-13T23:51:31.870Z,100343.81
2022-12-13T23:53:58.742Z,100339.53
2022-12-13T23:56:25.317Z,100339.53
2022-12-13T23:58:51.933Z,100333.59
